Heavener, Oklahoma
Current Conditions -  °F | °C
As of 8:15 PM on Monday 22 Dec 2014 (Local Time) from KRKR Reporting Station
Broken Clouds Broken Clouds  
Wind Chill: 49°   Ceiling: 4400
Heat Index: 49°   Visibility: 10mi
Dew Point: 44°   Wind: 0mph
Humidity: 85%   Direction: NA
Pressure: 29.65"   Gusts: NA
Location:  34.89°N, 94.6°W
Report Text: KRKR 230215Z AUTO 00000KT 10SM SCT036 BKN044 09/07 A2965 RMK AO2 T00930069
Loading
Personal Weather Stations






























Interactive Weather Map New forecast layout! Learn more

10-Day Weather Forecast

Advertisements
Track Severe Weather on mobile